createdAt,value
2019-03-06T00:02:06.669Z,93.18
2019-03-06T00:04:37.981Z,92.96
2019-03-06T00:07:09.828Z,93.01
2019-03-06T00:09:41.062Z,93.25
2019-03-06T00:12:12.514Z,93.35
2019-03-06T00:14:44.485Z,93.02
2019-03-06T00:17:15.842Z,93.16
2019-03-06T00:19:47.415Z,93.22
2019-03-06T00:22:18.780Z,93.21
2019-03-06T00:24:51.118Z,92.68
2019-03-06T00:27:22.597Z,92.81
2019-03-06T00:29:54.616Z,92.87
2019-03-06T00:32:26.488Z,93.13
2019-03-06T00:34:59.613Z,93.20
2019-03-06T00:37:31.355Z,93.14
2019-03-06T00:40:09.458Z,93.34
2019-03-06T00:42:45.842Z,93.42
2019-03-06T00:45:18.188Z,93.40
2019-03-06T00:47:49.649Z,93.49
2019-03-06T00:50:21.125Z,93.51
2019-03-06T00:52:52.678Z,93.61
2019-03-06T00:55:24.094Z,93.56
2019-03-06T00:57:56.605Z,93.81
2019-03-06T01:00:28.264Z,94.10
2019-03-06T01:02:59.621Z,94.73
2019-03-06T01:05:31.713Z,95.03
2019-03-06T01:08:03.355Z,94.75
2019-03-06T01:10:34.814Z,94.30
2019-03-06T01:13:06.405Z,94.07
2019-03-06T01:15:38.308Z,94.09
2019-03-06T01:18:09.676Z,94.38
2019-03-06T01:20:41.041Z,94.45
2019-03-06T01:23:12.411Z,93.98
2019-03-06T01:25:45.171Z,94.00
2019-03-06T01:28:17.791Z,93.99
2019-03-06T01:30:49.205Z,93.91
2019-03-06T01:33:34.997Z,93.98
2019-03-06T01:36:21.389Z,94.28
2019-03-06T01:39:12.657Z,94.11
2019-03-06T01:41:58.686Z,94.22
2019-03-06T01:44:49.043Z,93.97
2019-03-06T01:47:20.435Z,93.88
2019-03-06T01:49:51.815Z,93.91
2019-03-06T01:52:23.068Z,93.90
2019-03-06T01:54:54.442Z,94.43
2019-03-06T01:57:25.831Z,94.35
2019-03-06T01:59:57.178Z,94.41
2019-03-06T02:02:28.585Z,94.38
2019-03-06T02:04:59.926Z,94.40
2019-03-06T02:07:31.600Z,94.27
2019-03-06T02:10:02.966Z,94.40
2019-03-06T02:12:34.412Z,94.19
2019-03-06T02:15:06.831Z,94.04
2019-03-06T02:17:38.561Z,94.54
2019-03-06T02:20:13.531Z,94.62
2019-03-06T02:22:45.089Z,94.94
2019-03-06T02:25:16.879Z,95.14
2019-03-06T02:27:48.300Z,95.70
2019-03-06T02:30:21.567Z,96.03
2019-03-06T02:32:52.881Z,96.13
2019-03-06T02:35:24.789Z,95.90
2019-03-06T02:37:56.263Z,95.71
2019-03-06T02:40:27.540Z,94.93
2019-03-06T02:42:58.683Z,95.72
2019-03-06T02:45:29.956Z,95.43
2019-03-06T02:48:01.172Z,95.65
2019-03-06T02:50:32.735Z,95.79
2019-03-06T02:53:04.105Z,96.39
2019-03-06T02:55:35.412Z,96.46
2019-03-06T02:58:19.460Z,96.43
2019-03-06T03:01:09.595Z,96.32
2019-03-06T03:04:05.866Z,96.05
2019-03-06T03:06:41.127Z,95.45
2019-03-06T03:09:19.074Z,95.44
2019-03-06T03:11:50.360Z,95.65
2019-03-06T03:14:21.998Z,96.07
2019-03-06T03:16:53.322Z,96.17
2019-03-06T03:19:24.760Z,96.59
2019-03-06T03:21:56.250Z,96.77
2019-03-06T03:24:27.370Z,96.39
2019-03-06T03:26:58.584Z,96.30
2019-03-06T03:29:29.692Z,96.75
2019-03-06T03:32:00.806Z,96.34
2019-03-06T03:34:31.987Z,96.39
2019-03-06T03:37:03.454Z,96.56
2019-03-06T03:39:34.591Z,96.30
2019-03-06T03:42:05.966Z,96.32
2019-03-06T03:44:37.271Z,96.63
2019-03-06T03:47:09.225Z,97.17
2019-03-06T03:49:40.543Z,96.88
2019-03-06T03:52:12.008Z,96.74
2019-03-06T03:54:43.520Z,97.05
2019-03-06T03:57:15.351Z,97.17
2019-03-06T03:59:46.591Z,97.42
2019-03-06T04:02:18.152Z,97.28
2019-03-06T04:04:49.318Z,97.24
2019-03-06T04:07:20.836Z,97.36
2019-03-06T04:09:52.066Z,97.24
2019-03-06T04:12:23.584Z,97.37
2019-03-06T04:14:54.815Z,97.46
2019-03-06T04:17:26.324Z,97.47
2019-03-06T04:19:57.747Z,97.41
2019-03-06T04:22:29.164Z,97.37
2019-03-06T04:25:00.463Z,97.36
2019-03-06T04:27:31.743Z,97.35
2019-03-06T04:30:02.953Z,97.51
2019-03-06T04:32:34.264Z,97.47
2019-03-06T04:35:07.158Z,97.20
2019-03-06T04:37:38.735Z,97.23
2019-03-06T04:40:10.298Z,97.18
2019-03-06T04:42:41.546Z,97.47
2019-03-06T04:45:13.288Z,97.65
2019-03-06T04:47:44.663Z,97.63
2019-03-06T04:50:16.202Z,97.83
2019-03-06T04:52:48.067Z,97.76
2019-03-06T04:55:19.488Z,97.82
2019-03-06T04:57:50.719Z,97.74
2019-03-06T05:00:21.973Z,97.61
2019-03-06T05:02:53.934Z,97.74
2019-03-06T05:05:25.827Z,97.67
2019-03-06T05:07:57.654Z,97.53
2019-03-06T05:10:29.057Z,97.71
2019-03-06T05:13:00.624Z,97.69
2019-03-06T05:15:31.965Z,97.72
2019-03-06T05:18:31.265Z,97.67
2019-03-06T05:21:02.590Z,97.66
2019-03-06T05:23:33.843Z,97.60
2019-03-06T05:26:05.281Z,97.65
2019-03-06T05:28:36.692Z,97.62
2019-03-06T05:31:07.850Z,97.69
2019-03-06T05:33:39.049Z,97.65
2019-03-06T05:36:39.537Z,97.58
2019-03-06T05:39:12.534Z,97.91
2019-03-06T05:41:44.161Z,98.13
2019-03-06T05:44:17.328Z,98.10
2019-03-06T05:46:49.331Z,98.12
2019-03-06T05:49:20.805Z,98.04
2019-03-06T05:51:51.993Z,97.99
2019-03-06T05:54:24.678Z,97.84
2019-03-06T05:56:55.929Z,97.98
2019-03-06T05:59:27.434Z,98.16
2019-03-06T06:01:59.239Z,98.17
2019-03-06T06:04:30.398Z,98.26
2019-03-06T06:07:01.651Z,98.10
2019-03-06T06:09:33.184Z,97.92
2019-03-06T06:12:04.435Z,97.89
2019-03-06T06:14:35.842Z,98.01
2019-03-06T06:17:07.224Z,97.93
2019-03-06T06:19:38.755Z,97.81
2019-03-06T06:22:27.022Z,97.84
2019-03-06T06:24:58.222Z,97.86
2019-03-06T06:27:30.447Z,97.95
2019-03-06T06:30:01.947Z,98.02
2019-03-06T06:32:33.680Z,97.99
2019-03-06T06:35:05.477Z,97.98
2019-03-06T06:37:37.035Z,97.87
2019-03-06T06:40:09.385Z,97.67
2019-03-06T06:42:40.627Z,97.23
2019-03-06T06:45:12.056Z,96.76
2019-03-06T06:48:12.367Z,96.25
2019-03-06T06:51:04.701Z,95.93
2019-03-06T06:54:01.428Z,95.90
2019-03-06T06:57:39.169Z,95.78
2019-03-06T07:01:08.670Z,95.75
2019-03-06T07:04:43.793Z,95.80
2019-03-06T07:07:37.500Z,95.82
2019-03-06T07:10:39.996Z,94.55
2019-03-06T07:13:33.053Z,93.68
2019-03-06T07:16:27.499Z,92.62
2019-03-06T07:19:20.741Z,90.38
2019-03-06T07:22:14.361Z,88.66
2019-03-06T07:25:08.881Z,86.14
2019-03-06T07:28:05.318Z,85.32
2019-03-06T07:30:59.644Z,85.39
2019-03-06T07:33:50.096Z,83.00
2019-03-06T07:36:40.336Z,81.56
2019-03-06T07:39:21.294Z,80.92
2019-03-06T07:42:04.909Z,81.00
2019-03-06T07:44:50.746Z,80.98
2019-03-06T07:47:53.051Z,79.59
2019-03-06T07:50:41.606Z,79.25
2019-03-06T07:54:03.870Z,77.64
2019-03-06T07:57:00.392Z,78.48
2019-03-06T07:59:32.340Z,79.55
2019-03-06T08:02:09.244Z,78.54
2019-03-06T08:04:47.699Z,76.97
2019-03-06T08:07:18.938Z,76.18
2019-03-06T08:09:51.109Z,76.71
2019-03-06T08:12:34.586Z,76.82
2019-03-06T08:15:32.903Z,77.42
2019-03-06T08:18:23.461Z,76.77
2019-03-06T08:21:02.973Z,76.94
2019-03-06T08:23:44.250Z,75.00
2019-03-06T08:26:15.621Z,74.68
2019-03-06T08:28:47.097Z,75.89
2019-03-06T08:31:29.260Z,74.73
2019-03-06T08:34:00.939Z,75.91
2019-03-06T08:36:32.691Z,73.31
2019-03-06T08:39:05.660Z,72.20
2019-03-06T08:41:39.032Z,68.88
2019-03-06T08:44:10.370Z,70.00
2019-03-06T08:47:00.812Z,72.47
2019-03-06T08:49:59.987Z,70.37
2019-03-06T08:52:42.719Z,70.61
2019-03-06T08:55:31.934Z,68.89
2019-03-06T08:58:25.561Z,70.12
2019-03-06T09:01:35.775Z,67.86
2019-03-06T09:04:34.721Z,69.02
2019-03-06T09:07:19.043Z,67.04
2019-03-06T09:09:56.783Z,66.46
2019-03-06T09:12:43.562Z,63.92
2019-03-06T09:15:36.353Z,63.55
2019-03-06T09:18:16.846Z,63.04
2019-03-06T09:21:10.048Z,60.72
2019-03-06T09:24:12.850Z,61.04
2019-03-06T09:26:51.362Z,58.91
2019-03-06T09:29:37.833Z,62.94
2019-03-06T09:32:26.420Z,63.41
2019-03-06T09:35:29.053Z,60.83
2019-03-06T09:38:35.179Z,61.39
2019-03-06T09:41:27.266Z,60.48
2019-03-06T09:44:26.527Z,59.40
2019-03-06T09:47:23.345Z,61.32
2019-03-06T09:50:28.784Z,63.51
2019-03-06T09:53:08.831Z,61.65
2019-03-06T09:55:59.498Z,59.11
2019-03-06T09:58:48.319Z,61.48
2019-03-06T10:01:35.799Z,60.69
2019-03-06T10:04:25.039Z,57.78
2019-03-06T10:07:24.845Z,61.35
2019-03-06T10:10:24.724Z,59.75
2019-03-06T10:13:30.682Z,61.60
2019-03-06T10:16:20.928Z,60.49
2019-03-06T10:19:04.335Z,59.15
2019-03-06T10:21:35.941Z,58.53
2019-03-06T10:24:07.590Z,57.54
2019-03-06T10:26:39.102Z,53.11
2019-03-06T10:29:10.478Z,54.11
2019-03-06T10:31:42.004Z,53.03
2019-03-06T10:34:13.690Z,53.70
2019-03-06T10:36:45.525Z,52.18
2019-03-06T10:39:17.968Z,52.36
2019-03-06T10:41:49.443Z,55.61
2019-03-06T10:44:28.795Z,52.67
2019-03-06T10:46:54.077Z,50.75
2019-03-06T10:49:25.823Z,49.17
2019-03-06T10:51:57.786Z,52.24
2019-03-06T10:54:29.535Z,48.56
2019-03-06T10:57:01.758Z,51.14
2019-03-06T10:59:33.855Z,49.56
2019-03-06T11:02:05.910Z,50.09
2019-03-06T11:04:43.742Z,48.73
2019-03-06T11:07:15.868Z,49.18
2019-03-06T11:09:47.332Z,48.70
2019-03-06T11:12:19.346Z,52.11
2019-03-06T11:14:51.245Z,51.60
2019-03-06T11:17:23.573Z,49.52
2019-03-06T11:19:55.363Z,51.17
2019-03-06T11:22:26.903Z,51.21
2019-03-06T11:24:58.426Z,46.83
2019-03-06T11:27:29.939Z,45.48
2019-03-06T11:30:01.515Z,48.20
2019-03-06T11:32:33.806Z,51.96
2019-03-06T11:35:06.349Z,49.19
2019-03-06T11:37:37.801Z,50.47
2019-03-06T11:40:11.041Z,49.86
2019-03-06T11:42:42.937Z,52.61
2019-03-06T11:45:16.888Z,51.03
2019-03-06T11:47:49.155Z,54.77
2019-03-06T11:50:21.037Z,53.24
2019-03-06T11:52:53.201Z,52.23
2019-03-06T11:55:25.440Z,52.08
2019-03-06T11:57:57.162Z,53.41
2019-03-06T12:00:38.566Z,53.61
2019-03-06T12:03:10.251Z,54.95
2019-03-06T12:05:42.189Z,50.93
2019-03-06T12:08:15.374Z,50.61
2019-03-06T12:10:47.616Z,55.12
2019-03-06T12:13:20.269Z,54.19
2019-03-06T12:15:52.656Z,54.88
2019-03-06T12:18:25.089Z,53.55
2019-03-06T12:20:57.113Z,53.83
2019-03-06T12:23:29.320Z,52.80
2019-03-06T12:26:01.533Z,54.25
2019-03-06T12:28:32.865Z,53.61
2019-03-06T12:31:07.530Z,52.00
2019-03-06T12:33:39.436Z,54.34
2019-03-06T12:36:11.141Z,55.80
2019-03-06T12:38:42.494Z,54.53
2019-03-06T12:41:13.974Z,56.23
2019-03-06T12:43:45.462Z,54.88
2019-03-06T12:46:23.946Z,54.79
2019-03-06T12:49:04.229Z,54.44
2019-03-06T12:51:37.739Z,54.12
2019-03-06T12:54:10.201Z,54.38
2019-03-06T12:56:42.715Z,54.62
2019-03-06T12:59:14.523Z,54.72
2019-03-06T13:01:46.205Z,54.89
2019-03-06T13:04:18.080Z,52.68
2019-03-06T13:06:49.987Z,53.96
2019-03-06T13:09:23.190Z,55.15
2019-03-06T13:11:54.774Z,55.95
2019-03-06T13:14:27.510Z,56.57
2019-03-06T13:16:59.329Z,54.28
2019-03-06T13:19:30.799Z,57.19
2019-03-06T13:22:10.935Z,56.17
2019-03-06T13:24:35.534Z,54.86
2019-03-06T13:27:07.325Z,56.34
2019-03-06T13:29:38.641Z,55.12
2019-03-06T13:32:11.979Z,54.92
2019-03-06T13:34:50.793Z,58.11
2019-03-06T13:37:20.647Z,55.86
2019-03-06T13:39:51.962Z,57.07
2019-03-06T13:42:24.372Z,56.46
2019-03-06T13:44:56.546Z,55.91
2019-03-06T13:47:28.746Z,54.33
2019-03-06T13:50:01.106Z,55.53
2019-03-06T13:52:34.491Z,56.19
2019-03-06T13:55:08.314Z,55.50
2019-03-06T13:57:40.582Z,54.15
2019-03-06T14:00:16.177Z,54.16
2019-03-06T14:02:48.373Z,55.02
2019-03-06T14:05:20.613Z,55.78
2019-03-06T14:07:56.343Z,57.15
2019-03-06T14:10:25.824Z,56.12
2019-03-06T14:12:57.729Z,53.76
2019-03-06T14:15:29.932Z,54.19
2019-03-06T14:18:01.423Z,53.27
2019-03-06T14:20:32.887Z,55.64
2019-03-06T14:23:04.734Z,55.92
2019-03-06T14:25:36.342Z,56.17
2019-03-06T14:28:07.893Z,55.28
2019-03-06T14:30:40.295Z,56.04
2019-03-06T14:33:12.750Z,55.56
2019-03-06T14:35:44.265Z,53.22
2019-03-06T14:38:16.193Z,52.50
2019-03-06T14:40:48.814Z,51.03
2019-03-06T14:43:20.848Z,53.27
2019-03-06T14:45:52.127Z,52.41
2019-03-06T14:48:23.661Z,54.38
2019-03-06T14:50:55.069Z,51.42
2019-03-06T14:53:26.480Z,51.08
2019-03-06T14:55:57.894Z,51.98
2019-03-06T14:58:29.181Z,50.45
2019-03-06T15:01:00.479Z,50.51
2019-03-06T15:03:32.417Z,50.91
2019-03-06T15:06:04.191Z,51.14
2019-03-06T15:08:35.488Z,52.74
2019-03-06T15:11:06.876Z,54.10
2019-03-06T15:13:38.744Z,54.04
2019-03-06T15:16:10.072Z,56.00
2019-03-06T15:18:41.446Z,54.44
2019-03-06T15:21:12.863Z,55.04
2019-03-06T15:23:44.258Z,54.49
2019-03-06T15:26:15.913Z,56.24
2019-03-06T15:28:48.186Z,56.70
2019-03-06T15:31:19.464Z,56.72
2019-03-06T15:33:50.972Z,57.95
2019-03-06T15:36:22.638Z,60.19
2019-03-06T15:38:53.954Z,59.87
2019-03-06T15:41:25.125Z,60.20
2019-03-06T15:43:56.960Z,60.27
2019-03-06T15:46:28.609Z,60.42
2019-03-06T15:48:59.827Z,60.82
2019-03-06T15:51:31.737Z,61.73
2019-03-06T15:54:03.610Z,62.24
2019-03-06T15:56:35.381Z,62.10
2019-03-06T15:59:14.608Z,62.67
2019-03-06T16:01:40.090Z,63.29
2019-03-06T16:04:11.479Z,65.12
2019-03-06T16:06:42.633Z,64.28
2019-03-06T16:09:14.152Z,65.18
2019-03-06T16:11:45.971Z,65.14
2019-03-06T16:14:17.638Z,66.04
2019-03-06T16:16:48.955Z,66.21
2019-03-06T16:19:20.256Z,67.52
2019-03-06T16:21:51.592Z,68.42
2019-03-06T16:24:24.234Z,68.65
2019-03-06T16:26:55.666Z,68.54
2019-03-06T16:29:26.913Z,69.21
2019-03-06T16:31:58.408Z,69.42
2019-03-06T16:34:29.647Z,70.62
2019-03-06T16:37:01.020Z,69.74
2019-03-06T16:39:33.658Z,71.23
2019-03-06T16:42:05.012Z,69.74
2019-03-06T16:44:36.381Z,69.88
2019-03-06T16:47:08.190Z,69.99
2019-03-06T16:49:39.807Z,70.73
2019-03-06T16:52:11.322Z,70.67
2019-03-06T16:54:42.629Z,70.47
2019-03-06T16:57:14.213Z,70.16
2019-03-06T16:59:45.536Z,70.97
2019-03-06T17:02:17.390Z,70.37
2019-03-06T17:04:48.788Z,70.43
2019-03-06T17:07:20.181Z,70.44
2019-03-06T17:09:51.331Z,70.43
2019-03-06T17:12:22.555Z,71.20
2019-03-06T17:14:54.167Z,71.65
2019-03-06T17:17:25.982Z,72.21
2019-03-06T17:19:57.382Z,72.12
2019-03-06T17:22:28.645Z,72.65
2019-03-06T17:24:59.883Z,71.72
2019-03-06T17:27:31.466Z,71.87
2019-03-06T17:30:04.179Z,71.35
2019-03-06T17:32:36.040Z,71.41
2019-03-06T17:35:07.750Z,71.59
2019-03-06T17:37:40.322Z,71.70
2019-03-06T17:40:14.085Z,71.68
2019-03-06T17:42:46.452Z,72.28
2019-03-06T17:45:18.734Z,72.34
2019-03-06T17:47:50.164Z,71.91
2019-03-06T17:50:22.239Z,72.08
2019-03-06T17:52:53.872Z,72.05
2019-03-06T17:55:25.360Z,72.44
2019-03-06T17:57:56.698Z,72.35
2019-03-06T18:00:42.043Z,72.27
2019-03-06T18:03:15.360Z,72.40
2019-03-06T18:05:46.930Z,72.58
2019-03-06T18:08:18.471Z,72.58
2019-03-06T18:10:50.183Z,72.42
2019-03-06T18:13:21.882Z,72.78
2019-03-06T18:15:53.320Z,73.02
2019-03-06T18:18:24.643Z,72.64
2019-03-06T18:20:56.392Z,72.88
2019-03-06T18:23:28.145Z,72.98
2019-03-06T18:25:59.700Z,73.43
2019-03-06T18:28:31.246Z,72.92
2019-03-06T18:31:02.648Z,73.35
2019-03-06T18:33:33.902Z,73.71
2019-03-06T18:36:05.361Z,73.63
2019-03-06T18:38:36.661Z,73.89
2019-03-06T18:41:08.135Z,74.24
2019-03-06T18:43:39.789Z,74.29
2019-03-06T18:46:11.029Z,74.09
2019-03-06T18:48:42.520Z,74.31
2019-03-06T18:51:13.962Z,75.16
2019-03-06T18:53:45.222Z,74.77
2019-03-06T18:56:16.656Z,74.77
2019-03-06T18:58:48.312Z,74.22
2019-03-06T19:01:19.646Z,74.66
2019-03-06T19:03:51.115Z,75.02
2019-03-06T19:06:22.768Z,74.78
2019-03-06T19:08:54.138Z,74.43
2019-03-06T19:11:26.180Z,74.83
2019-03-06T19:13:57.586Z,75.02
2019-03-06T19:16:29.034Z,75.51
2019-03-06T19:19:00.430Z,76.03
2019-03-06T19:21:31.987Z,76.24
2019-03-06T19:24:03.293Z,76.50
2019-03-06T19:26:34.875Z,77.09
2019-03-06T19:29:06.616Z,77.40
2019-03-06T19:31:38.403Z,77.62
2019-03-06T19:34:09.843Z,77.76
2019-03-06T19:36:41.188Z,77.48
2019-03-06T19:39:12.499Z,77.29
2019-03-06T19:41:43.892Z,77.61
2019-03-06T19:44:15.189Z,77.82
2019-03-06T19:46:47.009Z,78.01
2019-03-06T19:49:18.380Z,79.00
2019-03-06T19:51:51.680Z,79.15
2019-03-06T19:54:23.224Z,78.70
2019-03-06T19:56:55.070Z,79.29
2019-03-06T19:59:27.721Z,79.12
2019-03-06T20:01:59.665Z,78.53
2019-03-06T20:04:31.235Z,78.42
2019-03-06T20:07:02.749Z,78.50
2019-03-06T20:09:34.200Z,78.41
2019-03-06T20:12:05.741Z,78.84
2019-03-06T20:14:37.138Z,78.57
2019-03-06T20:17:08.434Z,78.79
2019-03-06T20:19:39.760Z,78.88
2019-03-06T20:22:11.116Z,78.93
2019-03-06T20:24:43.375Z,79.08
2019-03-06T20:27:16.056Z,79.25
2019-03-06T20:29:48.194Z,79.57
2019-03-06T20:32:19.478Z,79.61
2019-03-06T20:34:50.766Z,79.57
2019-03-06T20:37:22.403Z,80.49
2019-03-06T20:39:53.746Z,80.30
2019-03-06T20:42:25.329Z,79.88
2019-03-06T20:44:56.747Z,80.19
2019-03-06T20:47:29.517Z,81.95
2019-03-06T20:50:01.408Z,82.49
2019-03-06T20:52:32.923Z,82.71
2019-03-06T20:55:04.445Z,82.87
2019-03-06T20:57:35.912Z,81.97
2019-03-06T21:00:11.864Z,82.37
2019-03-06T21:02:43.610Z,81.79
2019-03-06T21:05:16.038Z,82.01
2019-03-06T21:07:47.439Z,82.90
2019-03-06T21:10:18.984Z,83.45
2019-03-06T21:12:50.321Z,82.80
2019-03-06T21:15:21.814Z,83.63
2019-03-06T21:17:53.322Z,84.61
2019-03-06T21:20:24.865Z,84.86
2019-03-06T21:22:56.208Z,84.87
2019-03-06T21:25:27.738Z,84.65
2019-03-06T21:27:59.209Z,84.81
2019-03-06T21:30:34.352Z,84.33
2019-03-06T21:33:06.252Z,84.52
2019-03-06T21:35:37.692Z,84.44
2019-03-06T21:38:09.130Z,84.78
2019-03-06T21:40:40.451Z,84.68
2019-03-06T21:43:12.227Z,84.26
2019-03-06T21:45:43.848Z,84.12
2019-03-06T21:48:15.200Z,83.59
2019-03-06T21:50:46.556Z,82.74
2019-03-06T21:53:18.028Z,82.47
2019-03-06T21:55:49.429Z,82.41
2019-03-06T21:58:20.992Z,82.29
2019-03-06T22:00:52.777Z,82.58
2019-03-06T22:03:24.797Z,82.41
2019-03-06T22:05:56.765Z,82.63
2019-03-06T22:08:28.111Z,83.13
2019-03-06T22:10:59.567Z,82.83
2019-03-06T22:13:30.889Z,83.29
2019-03-06T22:16:02.417Z,83.43
2019-03-06T22:18:33.844Z,82.87
2019-03-06T22:21:05.231Z,82.99
2019-03-06T22:23:36.503Z,83.36
2019-03-06T22:26:08.411Z,82.88
2019-03-06T22:28:41.083Z,82.89
2019-03-06T22:31:12.568Z,82.84
2019-03-06T22:33:44.005Z,82.32
2019-03-06T22:36:15.577Z,82.46
2019-03-06T22:38:46.995Z,82.18
2019-03-06T22:41:18.365Z,82.52
2019-03-06T22:43:49.976Z,82.72
2019-03-06T22:46:21.603Z,82.37
2019-03-06T22:48:53.388Z,82.30
2019-03-06T22:51:25.488Z,82.50
2019-03-06T22:53:57.101Z,82.66
2019-03-06T22:56:28.597Z,82.80
2019-03-06T22:59:00.583Z,82.93
2019-03-06T23:01:35.876Z,82.38
2019-03-06T23:04:08.061Z,82.46
2019-03-06T23:06:39.451Z,82.37
2019-03-06T23:09:14.308Z,82.32
2019-03-06T23:11:46.427Z,82.61
2019-03-06T23:14:17.802Z,82.55
2019-03-06T23:16:49.335Z,82.25
2019-03-06T23:19:20.825Z,82.15
2019-03-06T23:21:52.256Z,82.51
2019-03-06T23:24:23.704Z,82.26
2019-03-06T23:26:55.485Z,82.05
2019-03-06T23:29:27.105Z,82.21
2019-03-06T23:31:58.567Z,82.28
2019-03-06T23:34:30.411Z,82.43
2019-03-06T23:37:01.767Z,82.38
2019-03-06T23:39:33.418Z,81.92
2019-03-06T23:42:06.110Z,81.92
2019-03-06T23:44:37.765Z,81.82
2019-03-06T23:47:09.203Z,81.96
2019-03-06T23:49:40.750Z,81.40
2019-03-06T23:52:18.769Z,81.24
2019-03-06T23:54:50.218Z,81.65
2019-03-06T23:57:21.821Z,81.33
2019-03-06T23:59:53.309Z,81.76
